Time;durP1;ratioP1;P1;durP2;ratioP2;P2;SDS_P1;SDS_P2;PMS_P1;PMS_P2;Temp;Humidity;BMP_temperature;BMP_pressure;BME280_temperature;BME280_humidity;BME280_pressure;Samples;Min_cycle;Max_cycle;Signal;HPM_P1;HPM_P2
2023/05/14 05:16:03;;;;;;;18.05;4.35;;;16.80;72.20;;;;;;4745744;30;20551;-67
2023/05/14 05:18:29;;;;;;;21.02;5.38;;;16.80;72.30;;;;;;4757046;30;20064;-70
2023/05/14 05:20:55;;;;;;;22.50;5.22;;;16.80;72.70;;;;;;4756763;30;20119;-70
2023/05/14 05:23:21;;;;;;;17.95;4.45;;;16.90;73.00;;;;;;4752211;30;20075;-70
2023/05/14 05:25:46;;;;;;;16.65;4.90;;;16.90;73.10;;;;;;4747363;30;20048;-71
2023/05/14 05:28:12;;;;;;;22.70;4.85;;;16.90;73.00;;;;;;4754926;30;20048;-69
2023/05/14 05:30:39;;;;;;;21.60;5.18;;;16.90;72.80;;;;;;4755746;30;20138;-70
2023/05/14 05:33:04;;;;;;;12.52;4.03;;;16.90;73.00;;;;;;4755976;30;20084;-68
2023/05/14 05:35:30;;;;;;;23.27;5.40;;;16.90;73.30;;;;;;4755746;30;20099;-71
2023/05/14 05:37:56;;;;;;;30.80;5.85;;;17.00;73.40;;;;;;4754721;30;20044;-71
2023/05/14 05:40:22;;;;;;;28.73;6.05;;;17.00;73.70;;;;;;4752214;30;20051;-76
2023/05/14 05:42:48;;;;;;;20.77;5.60;;;17.00;73.90;;;;;;4754336;30;20044;-74
2023/05/14 05:45:14;;;;;;;21.15;5.72;;;17.00;73.60;;;;;;4761908;30;20109;-70
2023/05/14 05:47:39;;;;;;;21.88;5.07;;;17.00;73.20;;;;;;4754809;30;20099;-70
2023/05/14 05:50:06;;;;;;;14.65;4.82;;;17.00;73.10;;;;;;4755605;30;20056;-70
2023/05/14 05:52:32;;;;;;;20.00;5.13;;;17.10;73.00;;;;;;4755593;30;20048;-72
2023/05/14 05:54:57;;;;;;;21.88;5.03;;;17.10;72.90;;;;;;4755469;30;20073;-70
2023/05/14 05:57:25;;;;;;;17.25;4.90;;;17.00;73.00;;;;;;4764190;30;20059;-70
2023/05/14 05:59:51;;;;;;;15.77;4.20;;;17.00;73.00;;;;;;4764362;30;20487;-71
2023/05/14 06:02:18;;;;;;;28.45;5.65;;;17.00;73.00;;;;;;4754469;30;20064;-72
2023/05/14 06:04:44;;;;;;;18.95;5.45;;;17.00;73.20;;;;;;4753933;30;20121;-74
2023/05/14 06:07:09;;;;;;;31.05;5.88;;;16.90;73.30;;;;;;4755346;30;20055;-74
2023/05/14 06:09:39;;;;;;;13.35;4.72;;;17.00;73.80;;;;;;4754722;30;20051;-77
2023/05/14 06:12:08;;;;;;;14.38;4.47;;;17.00;73.30;;;;;;4754987;30;20122;-71
2023/05/14 06:14:33;;;;;;;18.40;4.57;;;17.00;73.00;;;;;;4754754;30;20060;-74
2023/05/14 06:16:59;;;;;;;13.05;4.40;;;17.00;73.00;;;;;;4753033;30;20109;-74
2023/05/14 06:19:25;;;;;;;19.55;5.05;;;17.00;72.60;;;;;;4751154;30;20052;-74
2023/05/14 06:21:51;;;;;;;16.55;4.45;;;17.00;72.40;;;;;;4741239;30;20143;-74
2023/05/14 06:24:18;;;;;;;18.08;5.10;;;17.00;72.40;;;;;;4747161;30;20392;-72
2023/05/14 06:26:44;;;;;;;21.40;4.68;;;17.00;72.70;;;;;;4754893;30;20135;-72
2023/05/14 06:29:10;;;;;;;16.63;4.35;;;16.90;72.50;;;;;;4754676;30;20123;-72
2023/05/14 06:31:36;;;;;;;22.05;4.45;;;17.00;72.50;;;;;;4754896;30;20113;-72
2023/05/14 06:34:02;;;;;;;17.08;4.10;;;17.00;72.60;;;;;;4756082;30;20139;-72
2023/05/14 06:36:27;;;;;;;16.13;4.45;;;17.00;72.00;;;;;;4754318;30;20150;-72
2023/05/14 06:38:53;;;;;;;20.83;4.82;;;17.00;72.00;;;;;;4753390;30;20135;-71
2023/05/14 06:41:20;;;;;;;32.35;6.60;;;17.00;72.10;;;;;;4754131;30;20093;-71
2023/05/14 06:43:45;;;;;;;19.15;4.65;;;17.00;72.40;;;;;;4755185;30;20052;-72
2023/05/14 06:46:11;;;;;;;27.90;4.85;;;17.00;72.50;;;;;;4752669;30;20058;-71
2023/05/14 06:48:37;;;;;;;19.92;4.80;;;17.00;73.20;;;;;;4754682;30;20082;-70
2023/05/14 06:51:02;;;;;;;14.20;3.97;;;17.00;72.50;;;;;;4753964;30;20060;-71
2023/05/14 06:53:28;;;;;;;14.23;3.47;;;17.00;72.30;;;;;;4754849;30;20051;-71
2023/05/14 06:55:55;;;;;;;10.48;3.13;;;17.00;72.00;;;;;;4755483;30;20348;-70
2023/05/14 06:58:20;;;;;;;13.13;3.10;;;17.10;71.80;;;;;;4754566;30;20047;-71
2023/05/14 07:00:47;;;;;;;13.55;4.20;;;17.00;71.70;;;;;;4744640;30;20049;-71
2023/05/14 07:03:13;;;;;;;9.77;3.75;;;17.10;72.30;;;;;;4737196;30;20059;-71
2023/05/14 07:05:40;;;;;;;9.82;3.83;;;17.00;71.60;;;;;;4736994;30;20446;-74
2023/05/14 07:08:05;;;;;;;15.90;4.20;;;17.00;71.50;;;;;;4749824;30;20048;-72
2023/05/14 07:10:32;;;;;;;11.43;3.30;;;17.00;71.50;;;;;;4754302;30;20459;-72
2023/05/14 07:12:57;;;;;;;11.27;4.03;;;17.00;71.50;;;;;;4754558;30;20067;-72
2023/05/14 07:15:23;;;;;;;11.80;3.28;;;17.00;71.50;;;;;;4754481;30;20059;-72
2023/05/14 07:17:49;;;;;;;9.02;3.53;;;17.00;71.50;;;;;;4754685;30;20456;-72
2023/05/14 07:20:14;;;;;;;9.73;3.83;;;17.00;71.50;;;;;;4754516;30;20055;-72
2023/05/14 07:22:40;;;;;;;7.10;3.60;;;17.00;71.50;;;;;;4754457;30;20416;-72
2023/05/14 07:25:06;;;;;;;17.48;3.45;;;17.00;71.50;;;;;;4754377;30;20472;-77
2023/05/14 07:27:32;;;;;;;10.65;3.28;;;17.00;71.40;;;;;;4754355;30;20052;-76
2023/05/14 07:29:58;;;;;;;14.07;4.60;;;17.00;71.30;;;;;;4750381;30;20074;-74
2023/05/14 07:32:24;;;;;;;11.07;3.53;;;16.90;71.20;;;;;;4736581;30;20136;-77
2023/05/14 07:34:52;;;;;;;9.60;3.70;;;16.90;71.30;;;;;;4737001;30;20131;-80
2023/05/14 07:37:18;;;;;;;12.82;3.50;;;16.80;71.50;;;;;;4736845;30;20057;-82
2023/05/14 07:39:47;;;;;;;15.50;4.60;;;16.80;71.60;;;;;;4721013;30;20069;-82
2023/05/14 07:42:12;;;;;;;13.82;4.15;;;16.90;71.60;;;;;;4750982;30;20138;-77
2023/05/14 07:44:38;;;;;;;14.80;4.70;;;16.80;71.50;;;;;;4753420;30;20068;-77
2023/05/14 07:47:06;;;;;;;16.63;5.10;;;16.90;71.70;;;;;;4754134;30;20064;-75
2023/05/14 07:49:32;;;;;;;16.17;5.20;;;16.80;71.90;;;;;;4753179;30;20208;-76
2023/05/14 07:51:57;;;;;;;16.75;5.40;;;16.80;72.20;;;;;;4754165;30;20154;-75
2023/05/14 07:54:23;;;;;;;13.40;4.32;;;16.70;72.20;;;;;;4754011;30;20052;-77
2023/05/14 07:56:49;;;;;;;14.45;4.63;;;16.70;72.40;;;;;;4754993;30;20071;-73
2023/05/14 07:59:14;;;;;;;18.98;4.80;;;16.70;72.40;;;;;;4757842;30;20079;-73
2023/05/14 08:01:40;;;;;;;10.93;4.30;;;16.70;72.50;;;;;;4756091;30;20075;-73
2023/05/14 08:04:06;;;;;;;12.57;3.88;;;16.70;72.50;;;;;;4757050;30;20056;-74
2023/05/14 08:06:32;;;;;;;10.32;3.83;;;16.80;72.50;;;;;;4757525;30;20071;-75
2023/05/14 08:08:58;;;;;;;8.70;3.80;;;16.80;72.50;;;;;;4757375;30;20125;-75
2023/05/14 08:11:24;;;;;;;10.95;3.83;;;16.80;72.40;;;;;;4757805;30;20044;-75
2023/05/14 08:13:50;;;;;;;9.90;3.15;;;16.90;72.40;;;;;;4757196;30;20342;-76
2023/05/14 08:16:16;;;;;;;15.77;4.45;;;16.90;72.30;;;;;;4757095;30;20068;-78
2023/05/14 08:18:42;;;;;;;35.88;6.82;;;16.90;72.20;;;;;;4754624;30;20086;-72
2023/05/14 08:21:07;;;;;;;15.07;4.82;;;17.00;72.00;;;;;;4740420;30;20456;-75
2023/05/14 08:23:33;;;;;;;12.48;4.93;;;17.00;71.70;;;;;;4747627;30;20052;-71
2023/05/14 08:26:00;;;;;;;16.50;5.45;;;16.90;71.60;;;;;;4757342;30;20342;-69
2023/05/14 08:28:25;;;;;;;13.40;4.95;;;16.90;71.80;;;;;;4757145;30;20129;-75
2023/05/14 08:30:51;;;;;;;13.52;4.95;;;16.80;72.00;;;;;;4757415;30;20099;-74
2023/05/14 08:33:17;;;;;;;16.65;5.72;;;16.80;72.20;;;;;;4757436;30;20066;-74
2023/05/14 08:35:43;;;;;;;12.38;4.78;;;16.80;72.20;;;;;;4757041;30;20468;-75
2023/05/14 08:38:08;;;;;;;10.00;3.80;;;16.90;72.20;;;;;;4757191;30;20071;-70
2023/05/14 08:40:34;;;;;;;12.10;4.32;;;17.00;72.30;;;;;;4757246;30;20139;-72
2023/05/14 08:43:00;;;;;;;14.18;5.00;;;17.00;72.40;;;;;;4756690;30;20365;-74
2023/05/14 08:45:33;;;;;;;13.85;4.93;;;17.00;72.30;;;;;;4756438;30;20381;-76
2023/05/14 08:48:04;;;;;;;16.92;5.00;;;17.00;72.30;;;;;;4763324;30;20051;-76
2023/05/14 08:50:30;;;;;;;13.45;4.45;;;17.00;72.30;;;;;;4769232;30;20064;-75
2023/05/14 08:52:56;;;;;;;14.80;4.75;;;17.10;72.40;;;;;;4749872;30;20051;-75
2023/05/14 08:55:22;;;;;;;12.10;3.97;;;17.10;72.30;;;;;;4756761;30;20484;-76
2023/05/14 08:57:48;;;;;;;13.70;3.83;;;17.10;72.30;;;;;;4741582;30;20064;-76
2023/05/14 09:00:14;;;;;;;10.93;4.07;;;17.10;72.30;;;;;;4757546;30;20531;-75
2023/05/14 09:02:41;;;;;;;18.13;5.65;;;17.20;72.40;;;;;;4756728;30;20147;-75
2023/05/14 09:05:08;;;;;;;13.30;4.57;;;17.20;72.40;;;;;;4756923;30;20052;-75
2023/05/14 09:07:34;;;;;;;10.77;4.13;;;17.20;72.50;;;;;;4754658;30;20048;-78
2023/05/14 09:10:01;;;;;;;28.00;6.10;;;17.20;72.70;;;;;;4755715;30;20130;-71
2023/05/14 09:12:27;;;;;;;41.45;7.82;;;17.20;72.80;;;;;;4755811;30;20136;-72
2023/05/14 09:14:52;;;;;;;24.83;5.75;;;17.30;73.00;;;;;;4755769;30;20128;-79
2023/05/14 09:17:19;;;;;;;33.45;6.22;;;17.30;73.00;;;;;;4756309;30;20052;-79
2023/05/14 09:19:51;;;;;;;24.85;5.57;;;17.30;73.00;;;;;;4756357;30;20125;-76
2023/05/14 09:22:18;;;;;;;32.03;6.07;;;17.30;73.00;;;;;;4755415;30;20130;-77
2023/05/14 09:25:04;;;;;;;30.10;6.72;;;17.40;72.90;;;;;;4756480;30;20125;-77
2023/05/14 09:27:30;;;;;;;20.42;5.13;;;17.30;72.90;;;;;;4756282;30;20121;-75
2023/05/14 09:30:10;;;;;;;26.10;5.35;;;17.40;72.90;;;;;;4739767;30;20510;-75
2023/05/14 09:32:43;;;;;;;18.88;5.30;;;17.40;72.90;;;;;;4752336;30;20048;-71
2023/05/14 09:35:13;;;;;;;15.60;5.50;;;17.40;72.90;;;;;;4755738;30;20060;-72
2023/05/14 09:37:48;;;;;;;16.08;4.13;;;17.40;73.10;;;;;;4756252;30;20054;-71
2023/05/14 09:40:14;;;;;;;18.17;4.53;;;17.40;73.10;;;;;;4755868;30;20084;-71
2023/05/14 09:42:40;;;;;;;13.85;3.75;;;17.40;73.10;;;;;;4755726;30;20060;-71
2023/05/14 09:45:07;;;;;;;15.68;4.32;;;17.40;73.10;;;;;;4755576;30;20123;-71
2023/05/14 09:47:33;;;;;;;12.88;3.58;;;17.40;73.10;;;;;;4756085;30;20056;-70
2023/05/14 09:49:58;;;;;;;12.07;3.88;;;17.40;73.10;;;;;;4755838;30;20491;-70
2023/05/14 09:52:25;;;;;;;12.45;4.10;;;17.40;73.10;;;;;;4754672;30;20056;-70
2023/05/14 09:54:53;;;;;;;13.50;3.75;;;17.50;73.20;;;;;;4755496;30;20056;-71
2023/05/14 09:57:22;;;;;;;12.85;4.03;;;17.50;73.20;;;;;;4739841;30;20113;-70
2023/05/14 09:59:48;;;;;;;10.10;3.28;;;17.50;73.10;;;;;;4755315;30;20097;-71
2023/05/14 10:02:26;;;;;;;7.05;3.28;;;17.50;73.10;;;;;;4763622;30;20056;-71
2023/05/14 10:04:56;;;;;;;10.52;3.90;;;17.50;73.10;;;;;;4773566;30;20056;-70
2023/05/14 10:07:30;;;;;;;12.75;2.75;;;17.50;73.10;;;;;;4773143;30;20123;-69
2023/05/14 10:10:01;;;;;;;7.97;2.75;;;17.50;73.10;;;;;;4772966;30;20093;-70
2023/05/14 10:12:33;;;;;;;9.65;2.70;;;17.50;73.10;;;;;;4773192;30;20048;-69
2023/05/14 10:15:05;;;;;;;10.52;3.13;;;17.50;73.00;;;;;;4772990;30;20075;-70
2023/05/14 10:17:33;;;;;;;7.00;3.10;;;17.50;73.00;;;;;;4763119;30;20145;-70
2023/05/14 10:20:01;;;;;;;6.10;2.75;;;17.60;73.10;;;;;;4754674;30;20040;-71
2023/05/14 10:22:32;;;;;;;9.73;3.30;;;17.50;73.00;;;;;;4754164;30;20083;-70
2023/05/14 10:24:58;;;;;;;8.65;2.80;;;17.60;73.00;;;;;;4755625;30;20139;-69
2023/05/14 10:27:25;;;;;;;6.75;2.90;;;17.60;73.00;;;;;;4755100;30;20059;-70
2023/05/14 10:29:53;;;;;;;8.00;2.45;;;17.60;72.90;;;;;;4754246;30;20064;-70
2023/05/14 10:32:24;;;;;;;5.07;2.70;;;17.60;72.90;;;;;;4755099;30;20067;-69
2023/05/14 10:34:51;;;;;;;8.65;2.80;;;17.60;72.90;;;;;;4754576;30;20465;-70
2023/05/14 10:37:27;;;;;;;6.03;2.35;;;17.60;72.90;;;;;;4755458;30;20048;-70
2023/05/14 10:39:58;;;;;;;8.55;2.65;;;17.60;73.00;;;;;;4753771;30;20078;-73
2023/05/14 10:42:39;;;;;;;8.13;2.88;;;17.60;73.00;;;;;;4753591;30;20407;-71
2023/05/14 10:45:07;;;;;;;7.38;2.75;;;17.60;72.90;;;;;;4754249;30;20048;-70
2023/05/14 10:47:39;;;;;;;7.50;2.55;;;17.60;72.90;;;;;;4750922;30;20064;-70
2023/05/14 10:50:07;;;;;;;6.63;2.38;;;17.70;73.00;;;;;;4753662;30;20044;-72
2023/05/14 10:52:34;;;;;;;7.78;2.95;;;17.70;73.00;;;;;;4738619;30;20067;-71
2023/05/14 10:55:06;;;;;;;4.95;2.60;;;17.60;72.90;;;;;;4752967;30;20474;-70
2023/05/14 10:57:34;;;;;;;7.90;2.83;;;17.70;73.00;;;;;;4753797;30;20090;-71
2023/05/14 11:00:01;;;;;;;4.55;2.55;;;17.70;72.90;;;;;;4753512;30;20052;-72
2023/05/14 11:02:31;;;;;;;9.43;2.25;;;17.70;72.90;;;;;;4753406;30;20476;-71
2023/05/14 11:05:04;;;;;;;8.80;2.60;;;17.70;72.90;;;;;;4753428;30;20060;-71
2023/05/14 11:07:31;;;;;;;6.88;2.50;;;17.70;72.90;;;;;;4753767;30;20044;-71
2023/05/14 11:10:14;;;;;;;5.63;2.40;;;17.70;72.90;;;;;;4753307;30;20052;-72
2023/05/14 11:12:41;;;;;;;6.40;2.80;;;17.70;72.90;;;;;;4754181;30;20131;-72
2023/05/14 11:15:10;;;;;;;7.43;2.38;;;17.70;72.80;;;;;;4753116;30;20458;-72
2023/05/14 11:17:37;;;;;;;4.05;2.20;;;17.70;73.40;;;;;;4753621;30;20059;-72
2023/05/14 11:20:07;;;;;;;3.88;2.03;;;17.70;72.80;;;;;;4753712;30;20460;-72
2023/05/14 11:22:36;;;;;;;4.50;2.20;;;17.70;72.80;;;;;;4753941;30;20048;-72
2023/05/14 11:25:03;;;;;;;4.38;2.33;;;17.70;72.80;;;;;;4751299;30;20048;-73
2023/05/14 11:27:30;;;;;;;4.68;2.30;;;17.70;72.80;;;;;;4753156;30;20146;-73
2023/05/14 11:29:56;;;;;;;4.10;2.00;;;17.70;72.80;;;;;;4752741;30;20052;-71
2023/05/14 11:32:22;;;;;;;5.32;2.20;;;17.70;72.80;;;;;;4753343;30;20377;-71
2023/05/14 11:34:48;;;;;;;3.60;2.05;;;17.70;72.80;;;;;;4753987;30;20048;-71
2023/05/14 11:37:15;;;;;;;7.10;2.33;;;17.80;72.80;;;;;;4754944;30;20113;-72
2023/05/14 11:39:52;;;;;;;5.25;2.35;;;17.80;73.10;;;;;;4754223;30;20059;-70
2023/05/14 11:42:18;;;;;;;4.45;1.85;;;17.80;72.70;;;;;;4754048;30;20102;-72
2023/05/14 11:44:47;;;;;;;3.63;2.13;;;17.80;72.80;;;;;;4754280;30;20369;-72
2023/05/14 11:47:13;;;;;;;4.32;2.08;;;17.80;72.80;;;;;;4754268;30;20071;-71
2023/05/14 11:49:39;;;;;;;5.70;2.35;;;17.80;72.80;;;;;;4754277;30;20405;-71
2023/05/14 11:52:07;;;;;;;3.78;2.08;;;17.80;72.80;;;;;;4754017;30;20206;-71
2023/05/14 11:54:34;;;;;;;5.03;2.03;;;17.80;72.80;;;;;;4754391;30;20157;-72
2023/05/14 11:57:02;;;;;;;5.90;2.47;;;17.80;72.70;;;;;;4754496;30;20052;-71
2023/05/14 11:59:30;;;;;;;3.47;1.98;;;17.80;72.70;;;;;;4754111;30;20174;-71
2023/05/14 12:01:56;;;;;;;3.63;2.13;;;17.80;72.70;;;;;;4754077;30;20106;-70
2023/05/14 12:04:23;;;;;;;4.13;2.17;;;17.80;72.70;;;;;;4753441;30;20058;-72
2023/05/14 12:06:49;;;;;;;4.13;2.33;;;17.80;72.70;;;;;;4751151;30;20127;-74
2023/05/14 12:09:16;;;;;;;4.95;2.30;;;17.80;72.70;;;;;;4753539;30;20052;-73
2023/05/14 12:11:46;;;;;;;4.05;2.15;;;17.80;72.70;;;;;;4758913;30;20059;-73
2023/05/14 12:14:21;;;;;;;2.75;1.88;;;17.80;72.70;;;;;;4753445;30;20068;-73
2023/05/14 12:16:48;;;;;;;2.80;1.90;;;17.80;72.70;;;;;;4752769;30;20052;-73
2023/05/14 12:19:15;;;;;;;3.65;1.90;;;17.90;72.80;;;;;;4752731;30;20052;-71
2023/05/14 12:21:46;;;;;;;4.13;1.80;;;17.90;72.80;;;;;;4752556;30;20413;-73
2023/05/14 12:24:14;;;;;;;3.65;2.20;;;17.90;72.70;;;;;;4757895;30;20070;-73
2023/05/14 12:26:45;;;;;;;2.50;1.77;;;17.90;72.70;;;;;;4752808;30;20090;-72
2023/05/14 12:29:13;;;;;;;2.92;2.00;;;17.90;72.70;;;;;;4751560;30;20052;-72
2023/05/14 12:31:48;;;;;;;4.13;2.10;;;17.90;72.70;;;;;;4752549;30;20180;-72
2023/05/14 12:34:15;;;;;;;3.85;2.20;;;17.90;72.70;;;;;;4752498;30;20113;-73
2023/05/14 12:36:42;;;;;;;2.53;2.00;;;17.90;72.80;;;;;;4752568;30;20125;-72
2023/05/14 12:39:08;;;;;;;3.65;2.05;;;17.90;72.80;;;;;;4752580;30;20052;-72
2023/05/14 12:41:34;;;;;;;5.22;2.17;;;17.90;72.70;;;;;;4752659;30;20127;-73
2023/05/14 12:44:01;;;;;;;4.07;2.00;;;17.90;72.80;;;;;;4754200;30;20432;-73
2023/05/14 12:46:27;;;;;;;3.92;2.20;;;17.90;72.80;;;;;;4755518;30;20364;-73
2023/05/14 12:48:53;;;;;;;3.72;1.70;;;17.90;72.80;;;;;;4754757;30;20044;-72
2023/05/14 12:51:20;;;;;;;3.70;2.22;;;17.90;72.80;;;;;;4754863;30;20385;-72
2023/05/14 12:53:45;;;;;;;4.40;2.20;;;17.90;72.80;;;;;;4755217;30;20048;-78
2023/05/14 12:56:11;;;;;;;5.95;2.70;;;17.90;72.80;;;;;;4755453;30;20075;-71
2023/05/14 12:58:37;;;;;;;3.97;2.40;;;17.90;72.90;;;;;;4755608;30;20052;-71
2023/05/14 13:01:03;;;;;;;4.95;3.00;;;17.90;72.90;;;;;;4757100;30;20460;-71
2023/05/14 13:03:29;;;;;;;5.75;2.60;;;17.90;73.00;;;;;;4754699;30;20051;-73
2023/05/14 13:05:55;;;;;;;4.57;2.40;;;17.90;73.00;;;;;;4755371;30;20118;-71
2023/05/14 13:08:23;;;;;;;4.25;2.47;;;17.90;73.00;;;;;;4755527;30;20044;-72
2023/05/14 13:10:50;;;;;;;3.33;1.80;;;17.90;73.00;;;;;;4755535;30;20113;-73
2023/05/14 13:13:16;;;;;;;3.28;2.25;;;18.00;73.10;;;;;;4755721;30;20142;-72
2023/05/14 13:15:46;;;;;;;3.60;2.50;;;18.00;73.10;;;;;;4717726;30;1148246;-71
2023/05/14 13:18:17;;;;;;;4.63;2.30;;;17.90;73.00;;;;;;4754551;30;20447;-72
2023/05/14 13:20:44;;;;;;;2.65;2.05;;;18.00;73.10;;;;;;4755536;30;20056;-73
2023/05/14 13:23:10;;;;;;;4.15;2.33;;;18.00;73.10;;;;;;4755705;30;20060;-72
2023/05/14 13:25:36;;;;;;;4.03;2.53;;;17.90;73.10;;;;;;4755762;30;20364;-73
2023/05/14 13:28:02;;;;;;;4.45;2.40;;;18.00;73.20;;;;;;4755121;30;20484;-72
2023/05/14 13:30:28;;;;;;;3.78;2.05;;;18.00;73.20;;;;;;4755298;30;20066;-71
2023/05/14 13:32:53;;;;;;;2.95;2.10;;;18.00;73.20;;;;;;4753618;30;20059;-71
2023/05/14 13:35:19;;;;;;;3.65;2.40;;;18.00;73.20;;;;;;4755915;30;20055;-70
2023/05/14 13:37:46;;;;;;;4.07;2.20;;;18.00;73.20;;;;;;4755968;30;20528;-71
2023/05/14 13:40:12;;;;;;;4.60;2.22;;;18.00;73.20;;;;;;4755849;30;20056;-71
2023/05/14 13:42:38;;;;;;;2.50;2.08;;;18.00;73.20;;;;;;4755910;30;20533;-71
2023/05/14 13:45:05;;;;;;;3.22;2.25;;;18.00;73.20;;;;;;4754973;30;20060;-70
2023/05/14 13:47:31;;;;;;;3.05;2.03;;;18.00;73.20;;;;;;4755473;30;20063;-71
2023/05/14 13:49:57;;;;;;;3.85;2.15;;;18.00;73.20;;;;;;4755636;30;20488;-71
2023/05/14 13:52:23;;;;;;;3.97;2.20;;;18.00;73.20;;;;;;4755652;30;20087;-70
2023/05/14 13:54:48;;;;;;;3.17;2.42;;;18.00;73.20;;;;;;4754255;30;20052;-71
2023/05/14 13:57:14;;;;;;;3.30;2.28;;;18.00;73.20;;;;;;4755311;30;20052;-71
2023/05/14 13:59:41;;;;;;;3.33;2.42;;;18.00;73.30;;;;;;4756209;30;20057;-72
2023/05/14 14:02:07;;;;;;;4.03;2.33;;;18.00;73.30;;;;;;4755237;30;20118;-71
2023/05/14 14:04:33;;;;;;;4.20;2.28;;;18.00;73.30;;;;;;4755272;30;20080;-70
2023/05/14 14:06:59;;;;;;;2.90;2.40;;;18.00;73.30;;;;;;4755668;30;20231;-71
2023/05/14 14:09:25;;;;;;;3.20;2.58;;;18.00;73.30;;;;;;4751412;30;20114;-75
2023/05/14 14:11:50;;;;;;;6.35;3.38;;;18.00;73.40;;;;;;4755021;30;20052;-75
2023/05/14 14:14:17;;;;;;;6.43;3.45;;;18.00;73.40;;;;;;4755818;30;20060;-75
2023/05/14 14:16:43;;;;;;;6.82;3.63;;;18.10;73.60;;;;;;4754974;30;20055;-73
2023/05/14 14:19:09;;;;;;;5.72;3.88;;;18.10;73.70;;;;;;4755271;30;20062;-72
2023/05/14 14:21:38;;;;;;;5.47;3.15;;;18.10;73.80;;;;;;4755250;30;20056;-73
2023/05/14 14:24:04;;;;;;;8.18;4.68;;;18.10;73.80;;;;;;4755502;30;20457;-72
2023/05/14 14:26:30;;;;;;;6.53;4.40;;;18.10;73.90;;;;;;4755577;30;20491;-76
2023/05/14 14:28:56;;;;;;;11.00;5.35;;;18.10;74.00;;;;;;4755224;30;20139;-75
2023/05/14 14:31:22;;;;;;;12.55;5.55;;;18.10;74.00;;;;;;4754498;30;20139;-75
2023/05/14 14:33:47;;;;;;;10.15;5.72;;;18.10;74.00;;;;;;4755270;30;20193;-74
2023/05/14 14:36:13;;;;;;;9.60;6.85;;;18.10;74.10;;;;;;4739747;30;20056;-75
2023/05/14 14:38:39;;;;;;;14.63;7.63;;;18.10;74.30;;;;;;4754434;30;20131;-75
2023/05/14 14:41:08;;;;;;;12.70;7.47;;;18.10;74.50;;;;;;4755352;30;20070;-74
2023/05/14 14:43:39;;;;;;;27.48;9.30;;;18.20;75.40;;;;;;4754133;30;20060;-70
2023/05/14 14:46:04;;;;;;;14.38;7.32;;;18.20;75.80;;;;;;4754925;30;20059;-72
2023/05/14 14:48:38;;;;;;;12.43;7.40;;;18.20;76.30;;;;;;4766379;30;20048;-73
2023/05/14 14:51:06;;;;;;;10.32;7.25;;;18.20;76.20;;;;;;4769603;30;20052;-71
2023/05/14 14:53:33;;;;;;;10.75;7.38;;;18.20;76.80;;;;;;4759614;30;20052;-72
2023/05/14 14:55:59;;;;;;;16.33;8.45;;;18.20;77.20;;;;;;4755001;30;20384;-74
2023/05/14 14:58:26;;;;;;;21.10;9.70;;;18.20;76.60;;;;;;4744984;30;20453;-74
2023/05/14 15:00:55;;;;;;;21.15;10.82;;;18.30;76.20;;;;;;4753207;30;20079;-72
2023/05/14 15:03:22;;;;;;;17.77;10.65;;;18.30;76.50;;;;;;4754567;30;20087;-72
2023/05/14 15:05:48;;;;;;;20.75;9.32;;;18.30;76.50;;;;;;4754967;30;20122;-71
2023/05/14 15:08:14;;;;;;;15.32;8.93;;;18.30;76.40;;;;;;4754426;30;20052;-72
2023/05/14 15:10:40;;;;;;;13.45;9.60;;;18.30;76.30;;;;;;4760323;30;20136;-71
2023/05/14 15:13:07;;;;;;;14.73;8.60;;;18.30;76.00;;;;;;4772184;30;20189;-71
2023/05/14 15:15:34;;;;;;;24.58;10.90;;;18.30;75.70;;;;;;4766165;30;20067;-74
2023/05/14 15:18:00;;;;;;;22.08;11.93;;;18.30;75.00;;;;;;4754503;30;20142;-77
2023/05/14 15:20:26;;;;;;;20.00;11.75;;;18.30;73.60;;;;;;4754556;30;20445;-76
2023/05/14 15:22:52;;;;;;;27.15;12.30;;;18.30;73.10;;;;;;4754718;30;20109;-74
2023/05/14 15:25:19;;;;;;;14.75;11.18;;;18.20;72.70;;;;;;4754144;30;20484;-72
2023/05/14 15:27:45;;;;;;;17.58;11.80;;;18.20;72.30;;;;;;4738997;30;20153;-73
2023/05/14 15:30:11;;;;;;;16.88;11.70;;;18.20;72.00;;;;;;4742912;30;20084;-76
2023/05/14 15:32:40;;;;;;;16.42;11.63;;;18.10;71.80;;;;;;4754423;30;20147;-83
2023/05/14 15:35:09;;;;;;;20.40;11.38;;;18.20;71.40;;;;;;4738217;30;20380;-72
2023/05/14 15:37:42;;;;;;;22.25;12.40;;;18.10;71.20;;;;;;4754284;30;20058;-73
2023/05/14 15:40:09;;;;;;;19.05;11.35;;;18.10;71.20;;;;;;4754229;30;20135;-73
2023/05/14 15:42:35;;;;;;;33.75;12.88;;;18.10;71.20;;;;;;4754395;30;20067;-74
2023/05/14 15:45:01;;;;;;;34.17;13.18;;;18.10;71.40;;;;;;4747828;30;20466;-74
2023/05/14 15:47:27;;;;;;;46.55;13.55;;;18.10;71.70;;;;;;4736757;30;20129;-74
2023/05/14 15:49:53;;;;;;;32.97;13.30;;;18.10;71.90;;;;;;4729053;30;20048;-77
2023/05/14 15:52:18;;;;;;;42.33;12.95;;;18.20;72.30;;;;;;4754431;30;20071;-76
2023/05/14 15:54:48;;;;;;;31.23;11.68;;;18.20;72.50;;;;;;4751354;30;20059;-76
2023/05/14 15:57:14;;;;;;;28.85;11.32;;;18.20;72.70;;;;;;4744128;30;20416;-77
2023/05/14 15:59:39;;;;;;;27.50;11.30;;;18.30;72.80;;;;;;4753967;30;20535;-75
2023/05/14 16:02:06;;;;;;;35.45;11.90;;;18.30;72.70;;;;;;4753800;30;20048;-75
2023/05/14 16:04:32;;;;;;;27.23;11.07;;;18.30;72.70;;;;;;4738344;30;20056;-77
2023/05/14 16:07:13;;;;;;;32.22;12.00;;;18.30;72.60;;;;;;4753190;30;20062;-78
2023/05/14 16:09:39;;;;;;;24.17;10.77;;;18.30;72.60;;;;;;4753907;30;20048;-75
2023/05/14 16:12:06;;;;;;;33.50;12.20;;;18.30;72.70;;;;;;4753908;30;20427;-77
2023/05/14 16:14:33;;;;;;;33.67;12.43;;;18.40;72.60;;;;;;4752713;30;20064;-76
2023/05/14 16:17:00;;;;;;;41.38;13.13;;;18.40;72.60;;;;;;4749526;30;20067;-77
2023/05/14 16:19:26;;;;;;;47.97;12.98;;;18.40;72.70;;;;;;4740788;30;20060;-77
2023/05/14 16:21:52;;;;;;;30.65;13.15;;;18.40;72.60;;;;;;4761152;30;20067;-76
2023/05/14 16:24:18;;;;;;;29.48;12.85;;;18.40;72.50;;;;;;4768077;30;20055;-75
2023/05/14 16:26:44;;;;;;;25.67;13.15;;;18.40;72.40;;;;;;4760736;30;20491;-75
2023/05/14 16:29:10;;;;;;;24.73;13.20;;;18.40;71.40;;;;;;4774305;30;20055;-76
2023/05/14 16:31:36;;;;;;;24.98;12.68;;;18.40;70.30;;;;;;4757737;30;20055;-73
2023/05/14 16:34:02;;;;;;;24.23;11.40;;;18.40;69.90;;;;;;4766322;30;20055;-74
2023/05/14 16:36:27;;;;;;;24.15;10.52;;;18.30;70.00;;;;;;4774076;30;20082;-72
2023/05/14 16:38:53;;;;;;;28.40;11.27;;;18.30;70.80;;;;;;4760604;30;20145;-73
2023/05/14 16:41:20;;;;;;;25.23;10.68;;;18.30;71.20;;;;;;4756147;30;20148;-74
2023/05/14 16:43:46;;;;;;;42.55;11.93;;;18.30;71.60;;;;;;4756416;30;20044;-75
2023/05/14 16:46:12;;;;;;;24.70;10.10;;;18.30;72.10;;;;;;4756029;30;20095;-74
2023/05/14 16:48:38;;;;;;;23.25;10.57;;;18.30;72.10;;;;;;4756525;30;20165;-75
2023/05/14 16:51:04;;;;;;;20.27;9.48;;;18.30;72.30;;;;;;4755734;30;20044;-74
2023/05/14 16:53:30;;;;;;;25.52;10.13;;;18.30;72.50;;;;;;4756255;30;20060;-74
2023/05/14 16:55:55;;;;;;;19.20;8.60;;;18.30;72.70;;;;;;4757141;30;20125;-73
2023/05/14 16:58:21;;;;;;;22.13;9.40;;;18.30;72.80;;;;;;4756834;30;20407;-71
2023/05/14 17:00:47;;;;;;;25.55;9.98;;;18.30;72.90;;;;;;4756042;30;20064;-72
2023/05/14 17:03:13;;;;;;;31.40;9.20;;;18.30;73.10;;;;;;4744361;30;20059;-73
2023/05/14 17:05:39;;;;;;;27.48;9.18;;;18.30;73.10;;;;;;4724093;30;20056;-73
2023/05/14 17:08:05;;;;;;;28.10;9.43;;;18.30;73.20;;;;;;4739555;30;20071;-72
2023/05/14 17:10:32;;;;;;;23.00;8.18;;;18.30;73.20;;;;;;4738717;30;20049;-73
2023/05/14 17:12:58;;;;;;;19.13;8.05;;;18.30;73.30;;;;;;4738820;30;20057;-72
2023/05/14 17:15:24;;;;;;;23.80;8.25;;;18.30;73.50;;;;;;4738819;30;20052;-72
2023/05/14 17:17:50;;;;;;;19.50;7.90;;;18.30;73.60;;;;;;4738742;30;20122;-73
2023/05/14 17:20:16;;;;;;;14.85;7.78;;;18.30;73.60;;;;;;4752891;30;20412;-72
2023/05/14 17:22:42;;;;;;;15.27;7.32;;;18.30;73.70;;;;;;4756529;30;20526;-72
2023/05/14 17:25:08;;;;;;;18.00;7.25;;;18.30;73.70;;;;;;4756471;30;20055;-73
2023/05/14 17:27:35;;;;;;;15.55;7.05;;;18.30;74.30;;;;;;4756436;30;20048;-73
2023/05/14 17:30:02;;;;;;;16.42;7.00;;;18.30;73.80;;;;;;4756418;30;20060;-73
2023/05/14 17:32:28;;;;;;;16.65;6.55;;;18.30;73.80;;;;;;4756173;30;20056;-73
2023/05/14 17:34:55;;;;;;;14.40;7.05;;;18.30;73.80;;;;;;4756466;30;20494;-72
2023/05/14 17:37:25;;;;;;;14.18;7.00;;;18.30;73.70;;;;;;4755988;30;20471;-72
2023/05/14 17:39:51;;;;;;;14.65;7.00;;;18.30;73.70;;;;;;4755380;30;20552;-73
2023/05/14 17:42:17;;;;;;;19.02;7.47;;;18.30;73.70;;;;;;4756299;30;20056;-73
2023/05/14 17:44:43;;;;;;;16.23;6.57;;;18.30;73.80;;;;;;4755945;30;20044;-72
2023/05/14 17:47:09;;;;;;;11.50;6.55;;;18.30;73.80;;;;;;4755851;30;20074;-74
2023/05/14 17:49:34;;;;;;;15.95;7.15;;;18.30;73.70;;;;;;4743785;30;20384;-72
2023/05/14 17:52:00;;;;;;;12.20;6.47;;;18.30;73.80;;;;;;4738789;30;20052;-73